Terminal Aerodrome Forecast
Issued by NWS

Home | Current Version | Previous Version | Text Only | Print | Product List | Glossary On
Versions: 1 2 3 4 5 6 7 8 9 10 11 12 13 14 15 16 17 18 19 20 21 22 23 24 25
000
FTUS46 KPDT 211127
TAFBDN
TAF
KBDN 211127Z 2112/2212 24005KT P6SM VCSH SCT020 BKN050
     FM211400 17006KT P6SM -SHRA SCT025 OVC040
     FM211700 22016G25KT P6SM -SHRA BKN020 OVC035
     FM220200 25010KT P6SM VCSH SCT030 BKN045
     FM220500 VRB04KT P6SM SCT045=

USA.gov is the U.S. government's official web portal to all federal, state and local government web resources and services.